FW3861 East Rockaway NY US current weather conditions

sailwx.info

Wind from 133 at 3 knots gusting 8

Air temperature 23.3° C
Dewpoint 22.5° C

Last reported at 2020-Jul-11 00:01 UTC.
Time now 2020-Jul-11 00:53 UTC

Location: N 40°38' W 073°40'.
View on Google Maps.

See reports from other nearby stations

  
Tides and Currents Weather Stations Pressure Air Temp Water Temp Dewpoint Dewpoint Depression Visibility Wind Speed Wind Dir Waves Ship Positions
date/time (UTC)wind fromknots sea level pressurealtimeterstation pressurevisibilityair tempwater tempwave heightnotes
2020-Jul-11 00:01 133 3 gusting 8 23.3
2020-Jul-10 23:50 122 2 gusting 6 23.3
2020-Jul-10 23:40 128 5 gusting 14 23.3
2020-Jul-10 23:30 170 3 gusting 7 23.3
2020-Jul-10 23:20 129 4 gusting 12 23.3
2020-Jul-10 23:11 092 2 gusting 7 23.3
2020-Jul-10 23:00 130 4 gusting 8 23.9
2020-Jul-10 22:51 147 2 gusting 6 23.9
2020-Jul-10 22:40 155 4 gusting 8 23.9
2020-Jul-10 22:30 126 3 gusting 7 23.9
2020-Jul-10 22:20 196 4 gusting 6 23.9
2020-Jul-10 22:11 311 3 gusting 5 23.9
2020-Jul-10 22:01 142 3 gusting 5 23.9
2020-Jul-10 21:50 021 3 gusting 3 23.9
2020-Jul-10 21:40 056 2 gusting 7 23.9
2020-Jul-10 21:30 122 5 gusting 9 23.9
2020-Jul-10 21:20 158 3 gusting 6 23.9
2020-Jul-10 21:11 115 2 gusting 6 24.4
2020-Jul-10 21:01 139 3 gusting 8 24.4
2020-Jul-10 20:51 139 3 gusting 7 23.9
2020-Jul-10 20:40 132 5 gusting 13 23.9
2020-Jul-10 20:30 116 4 gusting 13 23.9
2020-Jul-10 20:20 151 5 gusting 13 23.9
2020-Jul-10 20:10 103 3 gusting 14 23.9
2020-Jul-10 20:01 150 4 gusting 13 23.3
2020-Jul-10 19:50 125 4 gusting 11 23.3
2020-Jul-10 19:40 139 3 gusting 8 23.3
2020-Jul-10 19:30 143 4 gusting 8 23.3
2020-Jul-10 19:20 050 4 gusting 14 23.9
2020-Jul-10 19:11 103 4 gusting 7 23.9
2020-Jul-10 19:00 127 4 gusting 13 23.9
2020-Jul-10 18:50 124 2 gusting 7 23.9
2020-Jul-10 18:40 163 5 gusting 13 23.9
2020-Jul-10 18:30 125 1 gusting 6 23.9
2020-Jul-10 18:21 118 1 gusting 8 23.9
2020-Jul-10 18:11 118 1 gusting 7 23.3
2020-Jul-10 18:01 110 1 gusting 7 23.3
2020-Jul-10 17:50 119 2 gusting 11 23.3
2020-Jul-10 17:40 127 1 gusting 6 23.9
2020-Jul-10 17:30 106 4 gusting 9 23.9
2020-Jul-10 17:21 129 5 gusting 11 23.9
2020-Jul-10 17:10 134 2 gusting 7 23.9
2020-Jul-10 17:00 099 5 gusting 11 23.9
2020-Jul-10 16:51 125 2 gusting 5 23.9
2020-Jul-10 16:40 093 1 gusting 6 23.9
2020-Jul-10 16:30 095 1 gusting 5 23.9
2020-Jul-10 16:21 099 1 gusting 3 23.9
2020-Jul-10 16:10 129 1 gusting 5 23.9
2020-Jul-10 16:01 133 2 gusting 6 23.9
2020-Jul-10 15:50 110 1 gusting 3 23.9
2020-Jul-10 15:40 112 2 gusting 7 23.9
2020-Jul-10 15:30 121 2 gusting 7 23.9
2020-Jul-10 15:21 138 1 gusting 6 24.4
2020-Jul-10 15:10 123 1 gusting 5 24.4
2020-Jul-10 15:00 098 1 gusting 6 24.4
2020-Jul-10 14:50 129 1 gusting 5 24.4
2020-Jul-10 14:40 110 1 gusting 3 25.0
2020-Jul-10 14:30 109 0 gusting 5 25.0
2020-Jul-10 14:20 104 0 gusting 3 25.0
2020-Jul-10 14:11 108 0 gusting 5 25.6
2020-Jul-10 14:00 096 1 gusting 3 25.6
2020-Jul-10 13:50 117 1 gusting 6 25.6
2020-Jul-10 13:40 110 1 gusting 6 25.6
2020-Jul-10 13:30 121 1 gusting 5 26.1
2020-Jul-10 13:21 129 0 gusting 2 26.1
2020-Jul-10 13:10 112 1 gusting 3 26.1
2020-Jul-10 13:00 106 26.1
2020-Jul-10 12:50 113 1 gusting 2 25.6
2020-Jul-10 12:40 176 25.6
2020-Jul-10 12:30 131 1 gusting 2 25.6
2020-Jul-10 12:20 107 0 gusting 2 25.6
2020-Jul-10 12:10 112 25.6
2020-Jul-10 12:01 118 0 gusting 2 25.0
2020-Jul-10 11:50 124 0 gusting 1 25.0
2020-Jul-10 11:40 111 0 gusting 1 25.0
2020-Jul-10 11:30 113 0 gusting 2 25.0
2020-Jul-10 11:21 136 0 gusting 1 25.0
2020-Jul-10 11:10 110 25.0
2020-Jul-10 11:00 138 0 gusting 1 25.0
2020-Jul-10 10:50 118 0 gusting 1 25.0
2020-Jul-10 10:40 106 25.0
2020-Jul-10 10:30 096 25.0
2020-Jul-10 10:21 110 24.4
2020-Jul-10 10:10 111 24.4
2020-Jul-10 10:00 24.4
2020-Jul-10 09:50 128 24.4
2020-Jul-10 09:40 087 0 gusting 1 24.4
2020-Jul-10 09:31 116 24.4
2020-Jul-10 09:21 149 24.4
2020-Jul-10 09:10 113 0 gusting 1 24.4
2020-Jul-10 09:00 104 0 gusting 1 24.4
2020-Jul-10 08:50 124 24.4
2020-Jul-10 08:40 111 24.4
2020-Jul-10 08:30 126 24.4
2020-Jul-10 08:21 123 24.4
2020-Jul-10 08:10 110 24.4
2020-Jul-10 08:00 107 24.4
2020-Jul-10 07:50 107 24.4
2020-Jul-10 07:40 117 24.4
2020-Jul-10 07:30 122 24.4
2020-Jul-10 07:21 134 24.4
2020-Jul-10 07:10 120 24.4
2020-Jul-10 07:00 124 24.4
2020-Jul-10 06:50 119 24.4
2020-Jul-10 06:40 106 24.4
2020-Jul-10 06:31 111 24.4
2020-Jul-10 06:21 24.4
2020-Jul-10 06:10 131 24.4
2020-Jul-10 06:01 125 24.4
2020-Jul-10 05:51 136 24.4
2020-Jul-10 05:40 129 24.4
2020-Jul-10 05:30 114 0 gusting 1 24.4
2020-Jul-10 05:20 106 24.4
2020-Jul-10 05:11 082 24.4
2020-Jul-10 05:00 126 24.4
2020-Jul-10 04:50 132 24.4
2020-Jul-10 04:40 124 24.4
2020-Jul-10 04:30 137 24.4
2020-Jul-10 04:21 120 24.4
2020-Jul-10 04:10 127 0 gusting 2 24.4
2020-Jul-10 04:00 129 24.4
2020-Jul-10 03:50 130 24.4
2020-Jul-10 03:40 126 24.4
2020-Jul-10 03:31 126 0 gusting 1 24.4
2020-Jul-10 03:21 120 25.0
2020-Jul-10 03:11 142 1 gusting 3 25.0
2020-Jul-10 03:01 145 0 gusting 1 25.0
2020-Jul-10 02:50 141 24.4
2020-Jul-10 02:40 134 25.0
2020-Jul-10 02:30 135 25.0
2020-Jul-10 02:21 153 25.0
2020-Jul-10 02:11 119 25.0
2020-Jul-10 02:00 131 25.0
2020-Jul-10 01:50 25.0
2020-Jul-10 01:40 135 25.0
2020-Jul-10 01:31 118 25.0
2020-Jul-10 01:21 25.0
2020-Jul-10 01:10 141 25.6
2020-Jul-10 01:01 142 25.6
2020-Jul-10 00:51 139 0 gusting 1 25.6
2020-Jul-10 00:40 137 0 gusting 2 25.6
2020-Jul-10 00:30 132 0 gusting 2 25.6
2020-Jul-10 00:20 137 0 gusting 1 25.6
2020-Jul-10 00:11 131 0 gusting 2 26.1
2020-Jul-10 00:00 126 26.1
2020-Jul-09 23:50 153 0 gusting 2 26.1
2020-Jul-09 23:40 158 1 gusting 3 26.1
2020-Jul-09 23:30 134 1 gusting 3 26.7
2020-Jul-09 23:21 145 1 gusting 3 26.7
2020-Jul-09 23:10 156 1 gusting 5 26.7
2020-Jul-09 23:00 138 1 gusting 5 26.7
2020-Jul-09 22:50 159 1 gusting 3 27.2
2020-Jul-09 22:40 156 2 gusting 5 27.2
2020-Jul-09 22:31 153 1 gusting 3 27.2
2020-Jul-09 22:20 174 2 gusting 5 27.2
2020-Jul-09 22:10 158 1 gusting 6 27.8
2020-Jul-09 22:00 143 2 gusting 3 27.8
2020-Jul-09 21:50 173 2 gusting 6 28.3
2020-Jul-09 21:40 139 1 gusting 5 28.9
2020-Jul-09 21:31 157 2 gusting 6 28.9
2020-Jul-09 21:21 151 1 gusting 5 29.4
2020-Jul-09 21:11 142 1 gusting 3 29.4
2020-Jul-09 21:00 183 1 gusting 3 30.0
2020-Jul-09 20:50 204 1 gusting 2 29.4
2020-Jul-09 20:40 153 3 gusting 5 29.4
2020-Jul-09 20:31 157 2 gusting 2 30.0
2020-Jul-09 20:21 173 2 gusting 6 30.0
2020-Jul-09 20:10 187 2 gusting 3 30.0
2020-Jul-09 20:00 155 1 gusting 5 30.0
2020-Jul-09 19:50 137 2 gusting 5 30.0
2020-Jul-09 19:41 174 1 gusting 3 30.0
2020-Jul-09 19:31 129 1 gusting 5 30.6
2020-Jul-09 19:25 162 2 gusting 5 30.0
2020-Jul-09 19:15 175 0 gusting 5 30.6
2020-Jul-09 19:05 205 1 gusting 5 30.6
2020-Jul-09 18:56 160 2 gusting 5 30.0
2020-Jul-09 18:46 171 1 gusting 3 30.0
2020-Jul-09 18:35 134 1 gusting 3 30.0
2020-Jul-09 18:26 154 2 gusting 6 30.0
2020-Jul-09 18:15 159 2 gusting 5 30.0
2020-Jul-09 18:05 185 2 gusting 5 30.0
2020-Jul-09 17:55 165 1 gusting 5 29.4
2020-Jul-09 17:46 185 2 gusting 6 29.4
2020-Jul-09 17:30 196 2 gusting 6 28.9
2020-Jul-09 17:20 219 2 gusting 5 28.9
2020-Jul-09 17:10 210 2 gusting 5 28.9
2020-Jul-09 17:01 199 1 gusting 5 28.9
2020-Jul-09 16:51 172 2 gusting 3 28.9
2020-Jul-09 16:40 201 2 gusting 6 28.9
2020-Jul-09 16:30 182 1 gusting 5 28.9
2020-Jul-09 16:20 177 1 gusting 3 29.4
2020-Jul-09 16:10 196 1 gusting 3 29.4
2020-Jul-09 16:01 141 0 gusting 1 29.4
2020-Jul-09 15:51 173 0 gusting 1 28.9
2020-Jul-09 15:40 171 0 gusting 3 28.9
2020-Jul-09 15:30 171 1 gusting 2 28.9
2020-Jul-09 15:20 188 0 gusting 2 28.3
2020-Jul-09 15:10 180 0 gusting 3 28.3
2020-Jul-09 15:01 200 1 gusting 3 27.8
2020-Jul-09 14:51 158 0 gusting 2 27.8
2020-Jul-09 14:40 202 1 gusting 5 27.2
2020-Jul-09 14:30 160 0 gusting 2 27.8
2020-Jul-09 14:20 150 0 gusting 2 27.8
2020-Jul-09 14:10 180 1 gusting 3 27.2
2020-Jul-09 14:01 135 1 gusting 2 27.2
2020-Jul-09 13:51 171 1 gusting 5 27.2
2020-Jul-09 13:40 194 1 gusting 5 27.2
2020-Jul-09 13:30 187 1 gusting 3 26.7
2020-Jul-09 13:20 141 0 gusting 3 26.7
2020-Jul-09 13:10 152 0 gusting 1 26.7
2020-Jul-09 13:01 149 0 gusting 2 26.1
2020-Jul-09 12:51 180 0 gusting 2 25.6
2020-Jul-09 12:40 145 25.6
2020-Jul-09 12:30 149 0 gusting 1 26.1
2020-Jul-09 12:20 146 0 gusting 2 25.6
2020-Jul-09 12:10 165 0 gusting 1 25.0
2020-Jul-09 12:00 194 0 gusting 5 25.6
2020-Jul-09 11:50 155 0 gusting 2 25.0
2020-Jul-09 11:41 136 0 gusting 1 24.4
2020-Jul-09 11:30 162 0 gusting 1 24.4
2020-Jul-09 11:20 167 23.9
2020-Jul-09 11:10 148 23.9
2020-Jul-09 11:00 23.9
2020-Jul-09 10:51 23.9
2020-Jul-09 10:40 23.3
2020-Jul-09 10:30 23.3
2020-Jul-09 10:20 23.3
2020-Jul-09 10:10 23.3
2020-Jul-09 10:01 23.3
2020-Jul-09 09:50 23.3
2020-Jul-09 09:40 22.8
2020-Jul-09 09:31 22.8
2020-Jul-09 09:20 22.8
2020-Jul-09 09:10 22.8
2020-Jul-09 09:00 23.3
2020-Jul-09 08:50 23.3
2020-Jul-09 08:41 22.8
2020-Jul-09 08:30 23.3
2020-Jul-09 08:20 23.3
2020-Jul-09 08:10 23.3
2020-Jul-09 08:01 23.9
2020-Jul-09 07:50 23.3
2020-Jul-09 07:40 23.9
2020-Jul-09 07:30 23.9
2020-Jul-09 07:20 23.9
2020-Jul-09 07:10 149 23.9
2020-Jul-09 07:01 154 23.9
2020-Jul-09 06:50 170 23.9
2020-Jul-09 06:40 186 24.4
2020-Jul-09 06:30 185 0 gusting 2 24.4
2020-Jul-09 06:20 168 0 gusting 2 24.4
2020-Jul-09 06:10 179 0 gusting 2 24.4
2020-Jul-09 06:01 162 0 gusting 2 24.4
2020-Jul-09 05:51 155 0 gusting 3 24.4
2020-Jul-09 05:40 169 0 gusting 2 24.4
2020-Jul-09 05:30 187 0 gusting 3 24.4
2020-Jul-09 05:20 164 0 gusting 2 24.4
2020-Jul-09 05:10 165 0 gusting 2 24.4
2020-Jul-09 05:01 178 0 gusting 2 24.4
2020-Jul-09 04:51 176 1 gusting 2 24.4
2020-Jul-09 04:40 145 1 gusting 3 25.0
2020-Jul-09 04:30 173 1 gusting 3 25.0
2020-Jul-09 04:20 185 1 gusting 6 25.0
2020-Jul-09 04:10 171 1 gusting 3 25.0
2020-Jul-09 04:01 185 1 gusting 5 25.0
2020-Jul-09 03:51 181 2 gusting 5 25.0
2020-Jul-09 03:40 180 1 gusting 5 25.0
2020-Jul-09 03:30 176 2 gusting 6 25.0
2020-Jul-09 03:20 181 2 gusting 6 25.0
2020-Jul-09 03:10 208 2 gusting 6 25.0
2020-Jul-09 03:01 188 1 gusting 6 25.0
2020-Jul-09 02:51 210 2 gusting 6 25.0
2020-Jul-09 02:40 197 2 gusting 5 25.0
2020-Jul-09 02:30 183 2 gusting 5 25.0
2020-Jul-09 02:20 200 1 gusting 5 25.0
2020-Jul-09 02:11 186 1 gusting 5 25.0
2020-Jul-09 02:01 167 1 gusting 3 25.0
2020-Jul-09 01:50 174 0 gusting 3 25.0
2020-Jul-09 01:40 171 1 gusting 3 25.0
2020-Jul-09 01:30 202 1 gusting 5 25.0
2020-Jul-09 01:20 178 1 gusting 6 25.0
2020-Jul-09 01:11 184 1 gusting 5 25.0
2020-Jul-09 01:01 146 1 gusting 6 25.0
2020-Jul-09 00:50 184 2 gusting 6 25.0
2020-Jul-09 00:40 194 1 gusting 5 25.0
2020-Jul-09 00:30 209 2 gusting 5 25.0
2020-Jul-09 00:20 190 1 gusting 5 25.0
2020-Jul-09 00:11 190 2 gusting 5 25.0
2020-Jul-09 00:01 195 1 gusting 5 25.0